Terminal Aerodrome Forecast
Issued by NWS Charleston, WV

Current Version | Previous Version | Text Only | Print | Product List | Glossary Off
Versions: 1 2 3 4 5 6 7 8 9 10 11 12 13 14 15 16 17 18 19 20 21 22 23

385
FTUS41 KRLX 242327
TAFEKN
TAF
KEKN 242327Z 2500/2524 24005KT P6SM SCT080
     FM250200 00000KT P6SM SCT090
     FM250800 00000KT 3SM BR SCT050
     FM251200 28004KT P6SM SCT035
     FM251500 28008G15KT P6SM SCT050=

USA.gov is the U.S. government's official web portal to all federal, state and local government web resources and services.